sensor_id;sensor_type;location;lat;lon;timestamp;temperature;humidity
18083;DHT22;9168;51.194;6.840;2023-06-26T00:00:08;22.50;99.90
18083;DHT22;9168;51.194;6.840;2023-06-26T00:02:36;22.40;99.90
18083;DHT22;9168;51.194;6.840;2023-06-26T00:05:04;22.40;99.90
18083;DHT22;9168;51.194;6.840;2023-06-26T00:07:31;22.40;99.90
18083;DHT22;9168;51.194;6.840;2023-06-26T00:10:01;22.40;99.90
18083;DHT22;9168;51.194;6.840;2023-06-26T00:12:28;22.40;99.90
18083;DHT22;9168;51.194;6.840;2023-06-26T00:14:55;22.30;99.90
18083;DHT22;9168;51.194;6.840;2023-06-26T00:17:22;22.30;99.90
18083;DHT22;9168;51.194;6.840;2023-06-26T00:19:49;22.30;99.90
18083;DHT22;9168;51.194;6.840;2023-06-26T00:22:16;22.20;99.90
18083;DHT22;9168;51.194;6.840;2023-06-26T00:24:43;22.20;99.90
18083;DHT22;9168;51.194;6.840;2023-06-26T00:27:12;22.20;99.90
18083;DHT22;9168;51.194;6.840;2023-06-26T00:29:39;22.10;99.90
18083;DHT22;9168;51.194;6.840;2023-06-26T00:32:06;22.10;99.90
18083;DHT22;9168;51.194;6.840;2023-06-26T00:34:33;22.00;99.90
18083;DHT22;9168;51.194;6.840;2023-06-26T00:37:00;22.00;99.90
18083;DHT22;9168;51.194;6.840;2023-06-26T00:39:27;22.00;99.90
18083;DHT22;9168;51.194;6.840;2023-06-26T00:41:54;21.90;99.90
18083;DHT22;9168;51.194;6.840;2023-06-26T00:44:22;21.90;99.90
18083;DHT22;9168;51.194;6.840;2023-06-26T00:46:49;21.90;99.90
18083;DHT22;9168;51.194;6.840;2023-06-26T00:49:17;21.80;99.90
18083;DHT22;9168;51.194;6.840;2023-06-26T00:51:44;21.80;99.90
18083;DHT22;9168;51.194;6.840;2023-06-26T00:54:11;21.80;99.90
18083;DHT22;9168;51.194;6.840;2023-06-26T00:56:38;21.80;99.90
18083;DHT22;9168;51.194;6.840;2023-06-26T00:59:05;21.80;99.90
18083;DHT22;9168;51.194;6.840;2023-06-26T01:01:33;21.70;99.90
18083;DHT22;9168;51.194;6.840;2023-06-26T01:04:00;21.70;99.90
18083;DHT22;9168;51.194;6.840;2023-06-26T01:06:28;21.60;99.90
18083;DHT22;9168;51.194;6.840;2023-06-26T01:08:58;21.60;99.90
18083;DHT22;9168;51.194;6.840;2023-06-26T01:11:25;21.60;99.90
18083;DHT22;9168;51.194;6.840;2023-06-26T01:13:52;21.60;99.90
18083;DHT22;9168;51.194;6.840;2023-06-26T01:16:21;21.50;99.90
18083;DHT22;9168;51.194;6.840;2023-06-26T01:18:51;21.50;99.90
18083;DHT22;9168;51.194;6.840;2023-06-26T01:21:19;21.50;99.90
18083;DHT22;9168;51.194;6.840;2023-06-26T01:23:56;21.50;99.90
18083;DHT22;9168;51.194;6.840;2023-06-26T01:26:29;21.40;99.90
18083;DHT22;9168;51.194;6.840;2023-06-26T01:28:57;21.40;99.90
18083;DHT22;9168;51.194;6.840;2023-06-26T01:31:27;21.40;99.90
18083;DHT22;9168;51.194;6.840;2023-06-26T01:33:54;21.40;99.90
18083;DHT22;9168;51.194;6.840;2023-06-26T01:36:22;21.30;99.90
18083;DHT22;9168;51.194;6.840;2023-06-26T01:38:49;21.30;99.90
18083;DHT22;9168;51.194;6.840;2023-06-26T01:41:16;21.30;99.90
18083;DHT22;9168;51.194;6.840;2023-06-26T01:43:57;21.20;99.90
18083;DHT22;9168;51.194;6.840;2023-06-26T01:46:33;21.20;99.90
18083;DHT22;9168;51.194;6.840;2023-06-26T01:49:07;21.20;99.90
18083;DHT22;9168;51.194;6.840;2023-06-26T01:51:39;21.20;99.90
18083;DHT22;9168;51.194;6.840;2023-06-26T01:54:10;21.20;99.90
18083;DHT22;9168;51.194;6.840;2023-06-26T01:56:40;21.10;99.90
18083;DHT22;9168;51.194;6.840;2023-06-26T01:59:11;21.10;99.90
18083;DHT22;9168;51.194;6.840;2023-06-26T02:01:40;21.10;99.90
18083;DHT22;9168;51.194;6.840;2023-06-26T02:04:06;21.10;99.90
18083;DHT22;9168;51.194;6.840;2023-06-26T02:06:33;21.00;99.90
18083;DHT22;9168;51.194;6.840;2023-06-26T02:09:00;21.00;99.90
18083;DHT22;9168;51.194;6.840;2023-06-26T02:11:27;21.00;99.90
18083;DHT22;9168;51.194;6.840;2023-06-26T02:13:54;21.00;99.90
18083;DHT22;9168;51.194;6.840;2023-06-26T02:16:22;21.00;99.90
18083;DHT22;9168;51.194;6.840;2023-06-26T02:18:49;21.00;99.90
18083;DHT22;9168;51.194;6.840;2023-06-26T02:21:16;21.10;99.90
18083;DHT22;9168;51.194;6.840;2023-06-26T02:23:43;21.10;99.90
18083;DHT22;9168;51.194;6.840;2023-06-26T02:26:10;21.10;99.90
18083;DHT22;9168;51.194;6.840;2023-06-26T02:28:37;21.10;99.90
18083;DHT22;9168;51.194;6.840;2023-06-26T02:31:04;21.10;99.90
18083;DHT22;9168;51.194;6.840;2023-06-26T02:33:32;21.10;99.90
18083;DHT22;9168;51.194;6.840;2023-06-26T02:35:59;21.10;99.90
18083;DHT22;9168;51.194;6.840;2023-06-26T02:38:26;21.10;99.90
18083;DHT22;9168;51.194;6.840;2023-06-26T02:40:53;21.00;99.90
18083;DHT22;9168;51.194;6.840;2023-06-26T02:43:20;21.00;99.90
18083;DHT22;9168;51.194;6.840;2023-06-26T02:45:47;20.90;99.90
18083;DHT22;9168;51.194;6.840;2023-06-26T02:48:14;20.90;99.90
18083;DHT22;9168;51.194;6.840;2023-06-26T02:50:42;20.90;99.90
18083;DHT22;9168;51.194;6.840;2023-06-26T02:53:11;20.80;99.90
18083;DHT22;9168;51.194;6.840;2023-06-26T02:55:38;20.80;99.90
18083;DHT22;9168;51.194;6.840;2023-06-26T02:58:05;20.80;99.90
18083;DHT22;9168;51.194;6.840;2023-06-26T03:00:32;20.80;99.90
18083;DHT22;9168;51.194;6.840;2023-06-26T03:02:59;20.90;99.90
18083;DHT22;9168;51.194;6.840;2023-06-26T03:05:26;20.80;99.90
18083;DHT22;9168;51.194;6.840;2023-06-26T03:07:55;20.80;99.90
18083;DHT22;9168;51.194;6.840;2023-06-26T03:10:22;20.80;99.90
18083;DHT22;9168;51.194;6.840;2023-06-26T03:12:49;20.80;99.90
18083;DHT22;9168;51.194;6.840;2023-06-26T03:15:16;20.80;99.90
18083;DHT22;9168;51.194;6.840;2023-06-26T03:17:43;20.80;99.90
18083;DHT22;9168;51.194;6.840;2023-06-26T03:20:10;20.80;99.90
18083;DHT22;9168;51.194;6.840;2023-06-26T03:22:36;20.90;99.90
18083;DHT22;9168;51.194;6.840;2023-06-26T03:25:05;21.00;99.90
18083;DHT22;9168;51.194;6.840;2023-06-26T03:27:33;21.00;99.90
18083;DHT22;9168;51.194;6.840;2023-06-26T03:30:00;21.10;99.90
18083;DHT22;9168;51.194;6.840;2023-06-26T03:32:27;21.10;99.90
18083;DHT22;9168;51.194;6.840;2023-06-26T03:34:54;21.20;99.90
18083;DHT22;9168;51.194;6.840;2023-06-26T03:37:20;21.20;99.90
18083;DHT22;9168;51.194;6.840;2023-06-26T03:39:48;21.20;99.90
18083;DHT22;9168;51.194;6.840;2023-06-26T03:42:16;21.20;99.90
18083;DHT22;9168;51.194;6.840;2023-06-26T03:44:43;21.20;99.90
18083;DHT22;9168;51.194;6.840;2023-06-26T03:47:09;21.20;99.90
18083;DHT22;9168;51.194;6.840;2023-06-26T03:49:36;21.20;99.90
18083;DHT22;9168;51.194;6.840;2023-06-26T03:52:04;21.20;99.90
18083;DHT22;9168;51.194;6.840;2023-06-26T03:54:31;21.20;99.90
18083;DHT22;9168;51.194;6.840;2023-06-26T03:56:59;21.20;99.90
18083;DHT22;9168;51.194;6.840;2023-06-26T03:59:27;21.20;99.90
18083;DHT22;9168;51.194;6.840;2023-06-26T04:01:54;21.20;99.90
18083;DHT22;9168;51.194;6.840;2023-06-26T04:04:21;21.20;99.90
18083;DHT22;9168;51.194;6.840;2023-06-26T04:06:47;21.30;99.90
18083;DHT22;9168;51.194;6.840;2023-06-26T04:09:14;21.30;99.90
18083;DHT22;9168;51.194;6.840;2023-06-26T04:11:41;21.30;99.90
18083;DHT22;9168;51.194;6.840;2023-06-26T04:14:08;21.30;99.90
18083;DHT22;9168;51.194;6.840;2023-06-26T04:16:36;21.40;99.90
18083;DHT22;9168;51.194;6.840;2023-06-26T04:19:03;21.40;99.90
18083;DHT22;9168;51.194;6.840;2023-06-26T04:21:30;21.50;99.90
18083;DHT22;9168;51.194;6.840;2023-06-26T04:23:57;21.50;99.90
18083;DHT22;9168;51.194;6.840;2023-06-26T04:26:24;21.60;99.90
18083;DHT22;9168;51.194;6.840;2023-06-26T04:28:53;21.60;99.90
18083;DHT22;9168;51.194;6.840;2023-06-26T04:31:20;21.60;99.90
18083;DHT22;9168;51.194;6.840;2023-06-26T04:33:49;21.60;99.90
18083;DHT22;9168;51.194;6.840;2023-06-26T04:36:16;21.70;99.90
18083;DHT22;9168;51.194;6.840;2023-06-26T04:38:44;21.70;99.90
18083;DHT22;9168;51.194;6.840;2023-06-26T04:41:10;21.80;99.90
18083;DHT22;9168;51.194;6.840;2023-06-26T04:43:37;21.80;99.90
18083;DHT22;9168;51.194;6.840;2023-06-26T04:46:04;21.80;99.90
18083;DHT22;9168;51.194;6.840;2023-06-26T04:48:31;21.70;99.90
18083;DHT22;9168;51.194;6.840;2023-06-26T04:51:00;21.70;99.90
18083;DHT22;9168;51.194;6.840;2023-06-26T04:53:26;21.70;99.90
18083;DHT22;9168;51.194;6.840;2023-06-26T04:55:53;21.70;99.90
18083;DHT22;9168;51.194;6.840;2023-06-26T04:58:20;21.70;99.90
18083;DHT22;9168;51.194;6.840;2023-06-26T05:00:48;21.70;99.90
18083;DHT22;9168;51.194;6.840;2023-06-26T05:03:17;21.70;99.90
18083;DHT22;9168;51.194;6.840;2023-06-26T05:05:44;21.80;99.90
18083;DHT22;9168;51.194;6.840;2023-06-26T05:08:16;21.80;99.90
18083;DHT22;9168;51.194;6.840;2023-06-26T05:10:43;21.80;99.90
18083;DHT22;9168;51.194;6.840;2023-06-26T05:13:11;21.80;99.90
18083;DHT22;9168;51.194;6.840;2023-06-26T05:15:40;21.80;99.90
18083;DHT22;9168;51.194;6.840;2023-06-26T05:18:07;21.90;99.90
18083;DHT22;9168;51.194;6.840;2023-06-26T05:20:35;21.90;99.90
18083;DHT22;9168;51.194;6.840;2023-06-26T05:23:02;21.90;99.90
18083;DHT22;9168;51.194;6.840;2023-06-26T05:25:31;21.90;99.90
18083;DHT22;9168;51.194;6.840;2023-06-26T05:28:00;21.90;99.90
18083;DHT22;9168;51.194;6.840;2023-06-26T05:30:27;21.90;99.90
18083;DHT22;9168;51.194;6.840;2023-06-26T05:32:56;21.90;99.90
18083;DHT22;9168;51.194;6.840;2023-06-26T05:35:28;21.80;99.90
18083;DHT22;9168;51.194;6.840;2023-06-26T05:37:57;21.80;99.90
18083;DHT22;9168;51.194;6.840;2023-06-26T05:40:24;21.80;99.90
18083;DHT22;9168;51.194;6.840;2023-06-26T05:42:53;21.90;99.90
18083;DHT22;9168;51.194;6.840;2023-06-26T05:45:20;21.90;99.90
18083;DHT22;9168;51.194;6.840;2023-06-26T05:47:47;21.90;99.90
18083;DHT22;9168;51.194;6.840;2023-06-26T05:50:18;21.90;99.90
18083;DHT22;9168;51.194;6.840;2023-06-26T05:52:45;22.00;99.90
18083;DHT22;9168;51.194;6.840;2023-06-26T05:55:13;22.00;99.90
18083;DHT22;9168;51.194;6.840;2023-06-26T05:57:40;22.00;99.90
18083;DHT22;9168;51.194;6.840;2023-06-26T06:00:10;22.00;99.90
18083;DHT22;9168;51.194;6.840;2023-06-26T06:02:37;22.10;99.90
18083;DHT22;9168;51.194;6.840;2023-06-26T06:05:05;22.10;99.90
18083;DHT22;9168;51.194;6.840;2023-06-26T06:07:32;22.10;99.90
18083;DHT22;9168;51.194;6.840;2023-06-26T06:10:00;22.10;99.90
18083;DHT22;9168;51.194;6.840;2023-06-26T06:12:27;22.10;99.90
18083;DHT22;9168;51.194;6.840;2023-06-26T06:14:55;22.20;99.90
18083;DHT22;9168;51.194;6.840;2023-06-26T06:17:23;22.20;99.90
18083;DHT22;9168;51.194;6.840;2023-06-26T06:19:50;22.10;99.90
18083;DHT22;9168;51.194;6.840;2023-06-26T06:22:17;22.20;99.90
18083;DHT22;9168;51.194;6.840;2023-06-26T06:24:44;22.10;99.90
18083;DHT22;9168;51.194;6.840;2023-06-26T06:27:11;22.10;99.90
18083;DHT22;9168;51.194;6.840;2023-06-26T06:29:38;22.10;99.90
18083;DHT22;9168;51.194;6.840;2023-06-26T06:32:06;22.00;99.90
18083;DHT22;9168;51.194;6.840;2023-06-26T06:34:34;22.00;99.90
18083;DHT22;9168;51.194;6.840;2023-06-26T06:37:02;21.90;99.90
18083;DHT22;9168;51.194;6.840;2023-06-26T06:39:29;21.80;99.90
18083;DHT22;9168;51.194;6.840;2023-06-26T06:41:56;21.70;99.90
18083;DHT22;9168;51.194;6.840;2023-06-26T06:44:23;21.70;99.90
18083;DHT22;9168;51.194;6.840;2023-06-26T06:46:50;21.70;99.90
18083;DHT22;9168;51.194;6.840;2023-06-26T06:49:17;21.80;99.90
18083;DHT22;9168;51.194;6.840;2023-06-26T06:51:45;21.80;99.90
18083;DHT22;9168;51.194;6.840;2023-06-26T06:54:12;21.90;99.90
18083;DHT22;9168;51.194;6.840;2023-06-26T06:56:39;21.90;99.90
18083;DHT22;9168;51.194;6.840;2023-06-26T06:59:05;21.90;99.90
18083;DHT22;9168;51.194;6.840;2023-06-26T07:01:32;22.00;99.90
18083;DHT22;9168;51.194;6.840;2023-06-26T07:03:59;22.00;99.90
18083;DHT22;9168;51.194;6.840;2023-06-26T07:06:26;22.10;99.90
18083;DHT22;9168;51.194;6.840;2023-06-26T07:08:55;22.30;99.90
18083;DHT22;9168;51.194;6.840;2023-06-26T07:11:22;22.50;99.90
18083;DHT22;9168;51.194;6.840;2023-06-26T07:13:48;22.60;99.90
18083;DHT22;9168;51.194;6.840;2023-06-26T07:16:15;22.70;99.90
18083;DHT22;9168;51.194;6.840;2023-06-26T07:18:44;22.70;99.90
18083;DHT22;9168;51.194;6.840;2023-06-26T07:21:11;22.70;99.90
18083;DHT22;9168;51.194;6.840;2023-06-26T07:23:39;22.70;99.90
18083;DHT22;9168;51.194;6.840;2023-06-26T07:26:08;22.60;99.90
18083;DHT22;9168;51.194;6.840;2023-06-26T07:28:36;22.60;99.90
18083;DHT22;9168;51.194;6.840;2023-06-26T07:31:04;22.60;99.90
18083;DHT22;9168;51.194;6.840;2023-06-26T07:33:31;22.60;99.90
18083;DHT22;9168;51.194;6.840;2023-06-26T07:35:59;22.60;99.90
18083;DHT22;9168;51.194;6.840;2023-06-26T07:38:27;22.80;99.90
18083;DHT22;9168;51.194;6.840;2023-06-26T07:40:54;22.80;99.90
18083;DHT22;9168;51.194;6.840;2023-06-26T07:43:23;22.80;99.90
18083;DHT22;9168;51.194;6.840;2023-06-26T07:45:50;22.80;99.90
18083;DHT22;9168;51.194;6.840;2023-06-26T07:48:19;22.90;99.90
18083;DHT22;9168;51.194;6.840;2023-06-26T07:50:45;22.80;99.90
18083;DHT22;9168;51.194;6.840;2023-06-26T07:53:13;22.90;99.90
18083;DHT22;9168;51.194;6.840;2023-06-26T07:55:40;23.00;99.90
18083;DHT22;9168;51.194;6.840;2023-06-26T07:58:07;23.10;99.90
18083;DHT22;9168;51.194;6.840;2023-06-26T08:00:36;23.20;99.90
18083;DHT22;9168;51.194;6.840;2023-06-26T08:03:03;23.10;99.90
18083;DHT22;9168;51.194;6.840;2023-06-26T08:05:30;23.20;99.90
18083;DHT22;9168;51.194;6.840;2023-06-26T08:07:57;23.20;99.90
18083;DHT22;9168;51.194;6.840;2023-06-26T08:10:25;23.20;99.90
18083;DHT22;9168;51.194;6.840;2023-06-26T08:12:52;23.30;99.90
18083;DHT22;9168;51.194;6.840;2023-06-26T08:15:19;23.30;99.90
18083;DHT22;9168;51.194;6.840;2023-06-26T08:17:47;23.30;99.90
18083;DHT22;9168;51.194;6.840;2023-06-26T08:20:16;23.30;99.90
18083;DHT22;9168;51.194;6.840;2023-06-26T08:22:45;23.40;99.90
18083;DHT22;9168;51.194;6.840;2023-06-26T08:25:13;23.40;99.90
18083;DHT22;9168;51.194;6.840;2023-06-26T08:27:40;23.40;99.90
18083;DHT22;9168;51.194;6.840;2023-06-26T08:30:07;23.40;99.90
18083;DHT22;9168;51.194;6.840;2023-06-26T08:32:34;23.40;99.90
18083;DHT22;9168;51.194;6.840;2023-06-26T08:35:03;23.40;99.90
18083;DHT22;9168;51.194;6.840;2023-06-26T08:37:30;23.40;99.90
18083;DHT22;9168;51.194;6.840;2023-06-26T08:39:59;23.50;99.90
18083;DHT22;9168;51.194;6.840;2023-06-26T08:42:26;23.50;99.90
18083;DHT22;9168;51.194;6.840;2023-06-26T08:44:53;23.60;99.90
18083;DHT22;9168;51.194;6.840;2023-06-26T08:47:21;23.60;99.90
18083;DHT22;9168;51.194;6.840;2023-06-26T08:49:53;23.60;99.90
18083;DHT22;9168;51.194;6.840;2023-06-26T08:52:27;23.50;99.90
18083;DHT22;9168;51.194;6.840;2023-06-26T08:54:57;23.50;99.90
18083;DHT22;9168;51.194;6.840;2023-06-26T08:57:26;23.60;99.90
18083;DHT22;9168;51.194;6.840;2023-06-26T08:59:54;23.70;99.90
18083;DHT22;9168;51.194;6.840;2023-06-26T09:02:22;23.70;99.90
18083;DHT22;9168;51.194;6.840;2023-06-26T09:04:50;23.80;99.90
18083;DHT22;9168;51.194;6.840;2023-06-26T09:07:17;23.80;99.90
18083;DHT22;9168;51.194;6.840;2023-06-26T09:09:45;23.80;99.90
18083;DHT22;9168;51.194;6.840;2023-06-26T09:12:13;23.80;99.90
18083;DHT22;9168;51.194;6.840;2023-06-26T09:14:41;23.60;99.90
18083;DHT22;9168;51.194;6.840;2023-06-26T09:17:08;23.60;99.90
18083;DHT22;9168;51.194;6.840;2023-06-26T09:19:37;23.60;99.90
18083;DHT22;9168;51.194;6.840;2023-06-26T09:22:04;23.70;99.90
18083;DHT22;9168;51.194;6.840;2023-06-26T09:24:31;23.80;99.90
18083;DHT22;9168;51.194;6.840;2023-06-26T09:26:59;23.80;99.90
18083;DHT22;9168;51.194;6.840;2023-06-26T09:29:28;23.90;99.90
18083;DHT22;9168;51.194;6.840;2023-06-26T09:31:56;24.00;99.90
18083;DHT22;9168;51.194;6.840;2023-06-26T09:34:30;24.10;99.90
18083;DHT22;9168;51.194;6.840;2023-06-26T09:36:57;24.10;99.90
18083;DHT22;9168;51.194;6.840;2023-06-26T09:39:24;24.20;99.90
18083;DHT22;9168;51.194;6.840;2023-06-26T09:41:52;24.10;99.90
18083;DHT22;9168;51.194;6.840;2023-06-26T09:44:23;24.10;99.90
18083;DHT22;9168;51.194;6.840;2023-06-26T09:46:50;24.10;99.90
18083;DHT22;9168;51.194;6.840;2023-06-26T09:49:19;24.20;99.90
18083;DHT22;9168;51.194;6.840;2023-06-26T09:51:46;24.30;99.90
18083;DHT22;9168;51.194;6.840;2023-06-26T09:54:16;24.30;99.90
18083;DHT22;9168;51.194;6.840;2023-06-26T09:56:43;24.40;99.90
18083;DHT22;9168;51.194;6.840;2023-06-26T09:59:10;24.30;99.90
18083;DHT22;9168;51.194;6.840;2023-06-26T10:01:40;24.30;99.90
18083;DHT22;9168;51.194;6.840;2023-06-26T10:04:07;24.40;99.90
18083;DHT22;9168;51.194;6.840;2023-06-26T10:06:36;24.50;99.90
18083;DHT22;9168;51.194;6.840;2023-06-26T10:09:04;24.60;99.90
18083;DHT22;9168;51.194;6.840;2023-06-26T10:11:37;24.80;99.90
18083;DHT22;9168;51.194;6.840;2023-06-26T10:14:04;25.00;99.90
18083;DHT22;9168;51.194;6.840;2023-06-26T10:16:35;25.20;99.90
18083;DHT22;9168;51.194;6.840;2023-06-26T10:19:07;25.40;99.90
18083;DHT22;9168;51.194;6.840;2023-06-26T10:21:35;25.70;99.90
18083;DHT22;9168;51.194;6.840;2023-06-26T10:24:05;25.90;99.90
18083;DHT22;9168;51.194;6.840;2023-06-26T10:26:35;25.90;99.90
18083;DHT22;9168;51.194;6.840;2023-06-26T10:29:03;26.10;99.90
18083;DHT22;9168;51.194;6.840;2023-06-26T10:31:32;26.40;99.90
18083;DHT22;9168;51.194;6.840;2023-06-26T10:34:00;26.30;99.90
18083;DHT22;9168;51.194;6.840;2023-06-26T10:36:31;26.00;99.90
18083;DHT22;9168;51.194;6.840;2023-06-26T10:39:03;26.30;99.90
18083;DHT22;9168;51.194;6.840;2023-06-26T10:41:36;26.60;99.90
18083;DHT22;9168;51.194;6.840;2023-06-26T10:44:08;27.00;99.90
18083;DHT22;9168;51.194;6.840;2023-06-26T10:46:49;27.60;99.90
18083;DHT22;9168;51.194;6.840;2023-06-26T10:49:17;27.90;99.90
18083;DHT22;9168;51.194;6.840;2023-06-26T10:51:49;28.10;99.90
18083;DHT22;9168;51.194;6.840;2023-06-26T10:54:17;28.20;99.90
18083;DHT22;9168;51.194;6.840;2023-06-26T10:56:45;28.30;99.90
18083;DHT22;9168;51.194;6.840;2023-06-26T10:59:18;28.50;99.90
18083;DHT22;9168;51.194;6.840;2023-06-26T11:01:46;28.60;99.90
18083;DHT22;9168;51.194;6.840;2023-06-26T11:04:14;28.90;99.90
18083;DHT22;9168;51.194;6.840;2023-06-26T11:06:45;29.10;99.90
18083;DHT22;9168;51.194;6.840;2023-06-26T11:09:18;29.50;99.90
18083;DHT22;9168;51.194;6.840;2023-06-26T11:12:00;29.70;99.90
18083;DHT22;9168;51.194;6.840;2023-06-26T11:14:31;30.10;99.90
18083;DHT22;9168;51.194;6.840;2023-06-26T11:16:59;30.30;99.90
18083;DHT22;9168;51.194;6.840;2023-06-26T11:19:28;30.50;99.90
18083;DHT22;9168;51.194;6.840;2023-06-26T11:21:59;30.80;99.90
18083;DHT22;9168;51.194;6.840;2023-06-26T11:24:28;31.20;99.90
18083;DHT22;9168;51.194;6.840;2023-06-26T11:27:00;31.30;99.90
18083;DHT22;9168;51.194;6.840;2023-06-26T11:29:28;30.70;99.80
18083;DHT22;9168;51.194;6.840;2023-06-26T11:31:59;30.50;99.60
18083;DHT22;9168;51.194;6.840;2023-06-26T11:34:29;30.20;99.90
18083;DHT22;9168;51.194;6.840;2023-06-26T11:36:57;30.20;99.90
18083;DHT22;9168;51.194;6.840;2023-06-26T11:39:28;30.20;99.70
18083;DHT22;9168;51.194;6.840;2023-06-26T11:41:55;30.10;98.60
18083;DHT22;9168;51.194;6.840;2023-06-26T11:44:22;29.70;98.30
18083;DHT22;9168;51.194;6.840;2023-06-26T11:46:51;29.60;97.90
18083;DHT22;9168;51.194;6.840;2023-06-26T11:49:21;29.40;96.10
18083;DHT22;9168;51.194;6.840;2023-06-26T11:51:48;29.60;97.50
18083;DHT22;9168;51.194;6.840;2023-06-26T11:54:16;29.60;97.40
18083;DHT22;9168;51.194;6.840;2023-06-26T11:56:56;29.50;97.70
18083;DHT22;9168;51.194;6.840;2023-06-26T11:59:24;28.90;96.40
18083;DHT22;9168;51.194;6.840;2023-06-26T12:01:52;28.90;98.10
18083;DHT22;9168;51.194;6.840;2023-06-26T12:04:20;28.80;98.80
18083;DHT22;9168;51.194;6.840;2023-06-26T12:06:49;28.90;98.70
18083;DHT22;9168;51.194;6.840;2023-06-26T12:09:18;28.80;99.80
18083;DHT22;9168;51.194;6.840;2023-06-26T12:11:48;28.60;98.70
18083;DHT22;9168;51.194;6.840;2023-06-26T12:14:20;28.50;99.90
18083;DHT22;9168;51.194;6.840;2023-06-26T12:16:47;28.40;98.80
18083;DHT22;9168;51.194;6.840;2023-06-26T12:19:14;28.50;99.90
18083;DHT22;9168;51.194;6.840;2023-06-26T12:21:46;28.60;99.90
18083;DHT22;9168;51.194;6.840;2023-06-26T12:24:15;28.30;98.90
18083;DHT22;9168;51.194;6.840;2023-06-26T12:26:42;28.00;98.40
18083;DHT22;9168;51.194;6.840;2023-06-26T12:29:11;27.80;99.20
18083;DHT22;9168;51.194;6.840;2023-06-26T12:31:42;27.60;98.90
18083;DHT22;9168;51.194;6.840;2023-06-26T12:34:10;27.60;98.80
18083;DHT22;9168;51.194;6.840;2023-06-26T12:36:40;27.60;97.10
18083;DHT22;9168;51.194;6.840;2023-06-26T12:39:09;27.60;97.10
18083;DHT22;9168;51.194;6.840;2023-06-26T12:41:45;27.40;96.70
18083;DHT22;9168;51.194;6.840;2023-06-26T12:44:19;27.30;98.00
18083;DHT22;9168;51.194;6.840;2023-06-26T12:46:48;27.20;97.80
18083;DHT22;9168;51.194;6.840;2023-06-26T12:49:16;27.40;98.30
18083;DHT22;9168;51.194;6.840;2023-06-26T12:51:43;27.70;96.80
18083;DHT22;9168;51.194;6.840;2023-06-26T12:54:10;28.00;95.40
18083;DHT22;9168;51.194;6.840;2023-06-26T12:56:37;28.10;97.70
18083;DHT22;9168;51.194;6.840;2023-06-26T12:59:04;28.30;94.10
18083;DHT22;9168;51.194;6.840;2023-06-26T13:01:31;28.80;96.40
18083;DHT22;9168;51.194;6.840;2023-06-26T13:03:59;28.80;95.60
18083;DHT22;9168;51.194;6.840;2023-06-26T13:06:26;29.00;95.90
18083;DHT22;9168;51.194;6.840;2023-06-26T13:08:54;29.30;94.50
18083;DHT22;9168;51.194;6.840;2023-06-26T13:11:21;29.40;94.70
18083;DHT22;9168;51.194;6.840;2023-06-26T13:13:48;29.60;94.20
18083;DHT22;9168;51.194;6.840;2023-06-26T13:16:15;29.40;94.20
18083;DHT22;9168;51.194;6.840;2023-06-26T13:18:44;29.00;94.60
18083;DHT22;9168;51.194;6.840;2023-06-26T13:21:12;28.50;93.30
18083;DHT22;9168;51.194;6.840;2023-06-26T13:23:39;28.40;94.10
18083;DHT22;9168;51.194;6.840;2023-06-26T13:26:06;28.30;94.50
18083;DHT22;9168;51.194;6.840;2023-06-26T13:28:33;28.00;92.80
18083;DHT22;9168;51.194;6.840;2023-06-26T13:31:00;28.30;94.70
18083;DHT22;9168;51.194;6.840;2023-06-26T13:33:27;28.60;94.00
18083;DHT22;9168;51.194;6.840;2023-06-26T13:35:54;28.90;91.70
18083;DHT22;9168;51.194;6.840;2023-06-26T13:38:23;29.10;92.10
18083;DHT22;9168;51.194;6.840;2023-06-26T13:40:51;29.10;92.00
18083;DHT22;9168;51.194;6.840;2023-06-26T13:43:20;29.30;92.30
18083;DHT22;9168;51.194;6.840;2023-06-26T13:45:47;29.40;94.00
18083;DHT22;9168;51.194;6.840;2023-06-26T13:48:14;29.30;93.20
18083;DHT22;9168;51.194;6.840;2023-06-26T13:50:41;29.50;93.70
18083;DHT22;9168;51.194;6.840;2023-06-26T13:53:08;29.50;93.70
18083;DHT22;9168;51.194;6.840;2023-06-26T13:55:36;29.40;92.40
18083;DHT22;9168;51.194;6.840;2023-06-26T13:58:04;29.30;93.50
18083;DHT22;9168;51.194;6.840;2023-06-26T14:00:31;28.60;91.40
18083;DHT22;9168;51.194;6.840;2023-06-26T14:02:59;28.40;93.00
18083;DHT22;9168;51.194;6.840;2023-06-26T14:05:26;28.40;93.50
18083;DHT22;9168;51.194;6.840;2023-06-26T14:07:53;28.20;93.90
18083;DHT22;9168;51.194;6.840;2023-06-26T14:10:20;27.90;93.50
18083;DHT22;9168;51.194;6.840;2023-06-26T14:12:49;27.60;93.40
18083;DHT22;9168;51.194;6.840;2023-06-26T14:15:18;27.50;93.40
18083;DHT22;9168;51.194;6.840;2023-06-26T14:17:45;27.70;93.00
18083;DHT22;9168;51.194;6.840;2023-06-26T14:20:13;27.70;91.50
18083;DHT22;9168;51.194;6.840;2023-06-26T14:22:40;27.60;92.50
18083;DHT22;9168;51.194;6.840;2023-06-26T14:25:07;27.50;93.00
18083;DHT22;9168;51.194;6.840;2023-06-26T14:27:34;27.40;93.60
18083;DHT22;9168;51.194;6.840;2023-06-26T14:30:04;27.40;94.00
18083;DHT22;9168;51.194;6.840;2023-06-26T14:32:31;27.70;93.80
18083;DHT22;9168;51.194;6.840;2023-06-26T14:34:58;27.80;93.30
18083;DHT22;9168;51.194;6.840;2023-06-26T14:37:29;27.90;92.90
18083;DHT22;9168;51.194;6.840;2023-06-26T14:39:56;27.90;93.10
18083;DHT22;9168;51.194;6.840;2023-06-26T14:42:24;27.90;92.10
18083;DHT22;9168;51.194;6.840;2023-06-26T14:44:51;28.00;93.60
18083;DHT22;9168;51.194;6.840;2023-06-26T14:47:19;28.20;93.70
18083;DHT22;9168;51.194;6.840;2023-06-26T14:49:46;28.30;93.90
18083;DHT22;9168;51.194;6.840;2023-06-26T14:52:13;28.40;93.50
18083;DHT22;9168;51.194;6.840;2023-06-26T14:54:41;28.40;93.50
18083;DHT22;9168;51.194;6.840;2023-06-26T14:57:08;28.20;93.50
18083;DHT22;9168;51.194;6.840;2023-06-26T14:59:34;28.10;93.60
18083;DHT22;9168;51.194;6.840;2023-06-26T15:02:02;27.90;91.50
18083;DHT22;9168;51.194;6.840;2023-06-26T15:04:31;27.80;92.50
18083;DHT22;9168;51.194;6.840;2023-06-26T15:06:58;27.70;92.60
18083;DHT22;9168;51.194;6.840;2023-06-26T15:09:25;27.50;92.40
18083;DHT22;9168;51.194;6.840;2023-06-26T15:11:52;27.50;93.80
18083;DHT22;9168;51.194;6.840;2023-06-26T15:14:19;27.40;93.80
18083;DHT22;9168;51.194;6.840;2023-06-26T15:16:45;27.30;93.00
18083;DHT22;9168;51.194;6.840;2023-06-26T15:19:12;27.00;92.20
18083;DHT22;9168;51.194;6.840;2023-06-26T15:21:41;26.90;93.10
18083;DHT22;9168;51.194;6.840;2023-06-26T15:24:08;26.70;92.00
18083;DHT22;9168;51.194;6.840;2023-06-26T15:26:34;26.40;92.00
18083;DHT22;9168;51.194;6.840;2023-06-26T15:29:02;26.40;93.30
18083;DHT22;9168;51.194;6.840;2023-06-26T15:31:29;26.40;93.30
18083;DHT22;9168;51.194;6.840;2023-06-26T15:33:57;26.30;93.20
18083;DHT22;9168;51.194;6.840;2023-06-26T15:36:23;26.30;93.40
18083;DHT22;9168;51.194;6.840;2023-06-26T15:38:52;26.30;94.00
18083;DHT22;9168;51.194;6.840;2023-06-26T15:41:19;26.20;94.10
18083;DHT22;9168;51.194;6.840;2023-06-26T15:43:45;26.10;93.80
18083;DHT22;9168;51.194;6.840;2023-06-26T15:46:12;26.10;94.40
18083;DHT22;9168;51.194;6.840;2023-06-26T15:48:39;26.00;94.80